Terminal Aerodrome Forecast
Issued by NWS

Home | Current Version | Previous Version | Graphics & Text | Print | Product List | Glossary On
Versions: 1 2 3 4 5 6 7 8 9 10 11 12 13 14 15 16
000
FTUS43 KIWX 231120
TAFSBN
TAF
KSBN 231120Z 2312/2412 13008KT P6SM SCT100 BKN250
     FM231600 14012KT P6SM BKN100
     FM240300 17010KT P6SM BKN060 WS020/19045KT
     FM240800 21012KT P6SM SCT060 BKN150 WS020/21060KT=

USA.gov is the U.S. government's official web portal to all federal, state and local government web resources and services.